createdAt,value
2022-10-05T00:00:14.303Z,8.73
2022-10-05T00:02:41.249Z,11.00
2022-10-05T00:05:30.646Z,11.52
2022-10-05T00:08:10.480Z,12.98
2022-10-05T00:10:37.108Z,12.63
2022-10-05T00:13:11.465Z,9.10
2022-10-05T00:15:38.041Z,9.13
2022-10-05T00:18:15.996Z,10.02
2022-10-05T00:20:43.178Z,9.13
2022-10-05T00:23:24.246Z,8.88
2022-10-05T00:25:51.127Z,12.02
2022-10-05T00:28:30.278Z,11.07
2022-10-05T00:31:00.744Z,9.82
2022-10-05T00:33:28.326Z,9.55
2022-10-05T00:35:55.435Z,9.27
2022-10-05T00:38:22.270Z,12.10
2022-10-05T00:41:05.946Z,8.40
2022-10-05T00:44:06.181Z,11.05
2022-10-05T00:46:48.035Z,11.10
2022-10-05T00:49:42.453Z,8.20
2022-10-05T00:52:31.939Z,9.50
2022-10-05T00:55:07.272Z,8.68
2022-10-05T00:57:36.703Z,8.10
2022-10-05T01:00:13.226Z,9.23
2022-10-05T01:02:52.781Z,9.07
2022-10-05T01:06:03.281Z,9.32
2022-10-05T01:09:03.916Z,7.15
2022-10-05T01:11:41.620Z,8.18
2022-10-05T01:14:34.649Z,8.05
2022-10-05T01:17:23.074Z,7.82
2022-10-05T01:20:12.870Z,8.45
2022-10-05T01:22:48.420Z,5.97
2022-10-05T01:25:38.122Z,10.40
2022-10-05T01:28:24.388Z,9.85
2022-10-05T01:31:14.407Z,6.68
2022-10-05T01:33:55.557Z,8.77
2022-10-05T01:36:48.828Z,8.65
2022-10-05T01:39:22.251Z,14.18
2022-10-05T01:42:23.763Z,9.13
2022-10-05T01:45:14.230Z,9.27
2022-10-05T01:48:17.500Z,12.55
2022-10-05T01:50:49.920Z,9.98
2022-10-05T01:53:40.575Z,12.77
2022-10-05T01:56:27.143Z,14.00
2022-10-05T01:59:02.245Z,9.93
2022-10-05T02:01:42.791Z,11.90
2022-10-05T02:04:56.895Z,12.43
2022-10-05T02:07:20.775Z,14.95
2022-10-05T02:09:56.447Z,15.40
2022-10-05T02:12:27.752Z,13.48
2022-10-05T02:15:07.232Z,11.35
2022-10-05T02:17:40.711Z,12.38
2022-10-05T02:20:11.632Z,13.43
2022-10-05T02:22:40.956Z,13.35
2022-10-05T02:25:13.257Z,12.10
2022-10-05T02:27:53.545Z,13.60
2022-10-05T02:30:20.911Z,12.40
2022-10-05T02:33:01.225Z,18.13
2022-10-05T02:35:27.853Z,14.48
2022-10-05T02:38:17.378Z,14.70
2022-10-05T02:41:01.650Z,13.48
2022-10-05T02:43:45.646Z,13.02
2022-10-05T02:46:31.062Z,14.05
2022-10-05T02:49:22.303Z,12.10
2022-10-05T02:52:21.680Z,11.90
2022-10-05T02:55:19.156Z,12.98
2022-10-05T02:57:59.776Z,11.43
2022-10-05T03:00:31.806Z,11.98
2022-10-05T03:03:17.884Z,13.48
2022-10-05T03:05:53.330Z,13.57
2022-10-05T03:08:42.975Z,12.35
2022-10-05T03:11:12.317Z,13.15
2022-10-05T03:13:54.452Z,14.00
2022-10-05T03:16:38.645Z,11.25
2022-10-05T03:19:29.326Z,12.40
2022-10-05T03:22:07.948Z,12.88
2022-10-05T03:25:05.079Z,15.30
2022-10-05T03:27:50.442Z,12.75
2022-10-05T03:30:21.844Z,11.95
2022-10-05T03:32:58.341Z,11.27
2022-10-05T03:35:33.196Z,14.32
2022-10-05T03:38:11.651Z,12.70
2022-10-05T03:40:53.242Z,12.30
2022-10-05T03:43:54.993Z,11.55
2022-10-05T03:46:24.618Z,10.98
2022-10-05T03:49:06.021Z,10.63
2022-10-05T03:51:36.239Z,13.95
2022-10-05T03:54:16.449Z,17.55
2022-10-05T03:56:52.678Z,10.80
2022-10-05T03:59:51.351Z,10.70
2022-10-05T04:02:45.138Z,11.60
2022-10-05T04:05:21.625Z,12.20
2022-10-05T04:08:03.811Z,13.50
2022-10-05T04:10:39.598Z,11.40
2022-10-05T04:13:20.505Z,12.10
2022-10-05T04:15:59.635Z,10.20
2022-10-05T04:18:32.027Z,10.65
2022-10-05T04:21:05.383Z,10.73
2022-10-05T04:23:58.834Z,11.68
2022-10-05T04:26:40.042Z,12.75
2022-10-05T04:29:36.283Z,8.25
2022-10-05T04:32:21.184Z,10.25
2022-10-05T04:35:09.593Z,8.18
2022-10-05T04:38:05.587Z,7.90
2022-10-05T04:40:56.815Z,9.52
2022-10-05T04:43:42.185Z,6.82
2022-10-05T04:46:17.727Z,10.25
2022-10-05T04:49:38.729Z,8.27
2022-10-05T04:52:20.189Z,9.23
2022-10-05T04:54:52.729Z,9.45
2022-10-05T04:57:48.831Z,9.70
2022-10-05T05:00:25.307Z,6.18
2022-10-05T05:03:10.692Z,6.40
2022-10-05T05:05:58.740Z,8.27
2022-10-05T05:08:41.788Z,5.18
2022-10-05T05:11:28.781Z,4.88
2022-10-05T05:14:04.129Z,8.30
2022-10-05T05:16:44.598Z,6.93
2022-10-05T05:19:40.060Z,6.90
2022-10-05T05:22:43.404Z,5.30
2022-10-05T05:25:42.255Z,3.60
2022-10-05T05:28:33.624Z,2.90
2022-10-05T05:31:16.782Z,3.58
2022-10-05T05:33:57.152Z,4.47
2022-10-05T05:36:36.712Z,3.13
2022-10-05T05:39:23.532Z,1.80
2022-10-05T05:42:17.641Z,5.75
2022-10-05T05:44:50.855Z,2.35
2022-10-05T05:47:40.060Z,2.03
2022-10-05T05:50:32.162Z,2.35
2022-10-05T05:55:36.540Z,3.35
2022-10-05T05:58:23.348Z,3.28
2022-10-05T06:01:32.935Z,1.90
2022-10-05T06:04:23.866Z,7.45
2022-10-05T06:06:53.276Z,2.05
2022-10-05T06:09:28.795Z,2.50
2022-10-05T06:12:01.908Z,2.67
2022-10-05T06:14:34.980Z,2.83
2022-10-05T06:17:06.356Z,4.00
2022-10-05T06:19:36.329Z,4.32
2022-10-05T06:22:12.108Z,2.45
2022-10-05T06:25:12.115Z,5.32
2022-10-05T06:28:13.345Z,3.13
2022-10-05T06:30:51.911Z,2.00
2022-10-05T06:33:54.111Z,2.40
2022-10-05T06:36:45.578Z,5.38
2022-10-05T06:39:34.222Z,2.35
2022-10-05T06:42:49.178Z,2.53
2022-10-05T06:45:37.298Z,4.35
2022-10-05T06:48:34.260Z,4.40
2022-10-05T06:51:11.230Z,2.80
2022-10-05T06:54:04.078Z,3.13
2022-10-05T06:56:48.895Z,2.80
2022-10-05T06:59:27.956Z,2.65
2022-10-05T07:02:23.662Z,3.95
2022-10-05T07:05:15.818Z,2.90
2022-10-05T07:07:50.478Z,6.43
2022-10-05T07:10:33.797Z,3.95
2022-10-05T07:13:10.452Z,4.55
2022-10-05T07:15:55.315Z,3.42
2022-10-05T07:18:34.629Z,4.53
2022-10-05T07:21:28.436Z,4.35
2022-10-05T07:24:11.778Z,4.20
2022-10-05T07:26:46.379Z,3.80
2022-10-05T07:29:22.474Z,4.93
2022-10-05T07:31:57.409Z,6.72
2022-10-05T07:34:33.571Z,5.97
2022-10-05T07:37:26.040Z,3.15
2022-10-05T07:40:19.407Z,5.15
2022-10-05T07:42:59.853Z,6.93
2022-10-05T07:45:28.821Z,3.92
2022-10-05T07:47:58.449Z,4.97
2022-10-05T07:51:00.311Z,5.18
2022-10-05T07:53:34.780Z,6.22
2022-10-05T07:56:20.931Z,4.70
2022-10-05T07:58:52.434Z,4.25
2022-10-05T08:01:27.495Z,5.28
2022-10-05T08:04:11.607Z,3.90
2022-10-05T08:06:48.530Z,6.25
2022-10-05T08:09:29.255Z,3.70
2022-10-05T08:12:01.171Z,4.18
2022-10-05T08:14:46.151Z,5.78
2022-10-05T08:17:39.140Z,4.95
2022-10-05T08:20:29.605Z,4.65
2022-10-05T08:23:05.280Z,4.30
2022-10-05T08:25:54.909Z,6.93
2022-10-05T08:28:35.679Z,4.68
2022-10-05T08:31:09.625Z,4.38
2022-10-05T08:34:04.735Z,7.88
2022-10-05T08:36:59.256Z,3.55
2022-10-05T08:39:30.538Z,4.78
2022-10-05T08:42:21.781Z,4.95
2022-10-05T08:44:57.723Z,3.78
2022-10-05T08:47:59.541Z,6.65
2022-10-05T08:50:47.986Z,5.03
2022-10-05T08:53:52.391Z,5.22
2022-10-05T08:56:50.699Z,5.25
2022-10-05T08:59:45.983Z,5.50
2022-10-05T09:02:33.992Z,2.63
2022-10-05T09:05:32.788Z,4.97
2022-10-05T09:08:31.001Z,3.30
2022-10-05T09:11:00.475Z,4.97
2022-10-05T09:13:35.928Z,4.05
2022-10-05T09:16:28.101Z,6.32
2022-10-05T09:19:03.268Z,5.63
2022-10-05T09:21:43.046Z,7.43
2022-10-05T09:24:34.435Z,4.60
2022-10-05T09:27:15.235Z,8.02
2022-10-05T09:30:15.355Z,2.58
2022-10-05T09:32:53.819Z,3.28
2022-10-05T09:35:38.945Z,3.28
2022-10-05T09:38:34.228Z,3.55
2022-10-05T09:41:16.592Z,3.65
2022-10-05T09:44:06.559Z,2.22
2022-10-05T09:47:10.065Z,3.75
2022-10-05T09:50:03.984Z,4.18
2022-10-05T09:52:48.479Z,3.72
2022-10-05T09:55:39.108Z,3.47
2022-10-05T09:58:30.319Z,6.72
2022-10-05T10:01:36.679Z,10.32
2022-10-05T10:04:19.029Z,6.30
2022-10-05T10:06:55.655Z,8.25
2022-10-05T10:09:31.493Z,5.35
2022-10-05T10:12:24.200Z,6.07
2022-10-05T10:15:24.649Z,3.50
2022-10-05T10:18:20.780Z,5.68
2022-10-05T10:21:05.645Z,7.18
2022-10-05T10:24:06.676Z,4.60
2022-10-05T10:27:06.570Z,6.70
2022-10-05T10:30:18.869Z,3.63
2022-10-05T10:32:54.271Z,4.35
2022-10-05T10:38:27.602Z,3.78
2022-10-05T10:41:24.891Z,6.93
2022-10-05T10:44:11.000Z,3.65
2022-10-05T10:46:59.551Z,3.55
2022-10-05T10:49:48.756Z,3.00
2022-10-05T10:52:53.410Z,5.28
2022-10-05T10:55:37.623Z,4.13
2022-10-05T10:58:20.736Z,8.63
2022-10-05T11:00:47.298Z,2.95
2022-10-05T11:03:31.011Z,6.97
2022-10-05T11:06:12.851Z,5.45
2022-10-05T11:09:09.586Z,5.40
2022-10-05T11:11:56.057Z,5.80
2022-10-05T11:14:57.407Z,6.00
2022-10-05T11:17:54.526Z,3.13
2022-10-05T11:20:59.031Z,5.95
2022-10-05T11:23:59.432Z,4.15
2022-10-05T11:26:41.733Z,6.80
2022-10-05T11:29:45.219Z,4.85
2022-10-05T11:32:32.319Z,4.10
2022-10-05T11:35:34.613Z,4.45
2022-10-05T11:38:22.891Z,6.40
2022-10-05T11:41:16.332Z,7.10
2022-10-05T11:44:08.673Z,4.30
2022-10-05T11:46:41.329Z,4.70
2022-10-05T11:49:46.141Z,4.60
2022-10-05T11:52:18.740Z,6.13
2022-10-05T11:55:11.285Z,8.60
2022-10-05T11:57:43.132Z,5.57
2022-10-05T12:00:21.024Z,3.92
2022-10-05T12:02:59.678Z,4.20
2022-10-05T12:05:46.519Z,3.58
2022-10-05T12:08:34.576Z,3.30
2022-10-05T12:11:46.196Z,3.78
2022-10-05T12:14:33.619Z,6.53
2022-10-05T12:17:28.342Z,3.25
2022-10-05T12:20:01.253Z,3.45
2022-10-05T12:22:42.763Z,9.55
2022-10-05T12:25:40.880Z,3.35
2022-10-05T12:28:15.112Z,7.68
2022-10-05T12:31:00.559Z,3.05
2022-10-05T12:33:33.896Z,5.15
2022-10-05T12:36:59.618Z,4.82
2022-10-05T12:39:37.950Z,3.40
2022-10-05T12:42:26.399Z,5.18
2022-10-05T12:45:23.448Z,3.15
2022-10-05T12:48:04.706Z,5.07
2022-10-05T12:50:39.951Z,3.45
2022-10-05T12:53:51.770Z,5.63
2022-10-05T12:56:41.991Z,4.32
2022-10-05T12:59:27.016Z,5.07
2022-10-05T13:02:18.939Z,5.63
2022-10-05T13:05:02.945Z,5.93
2022-10-05T13:07:40.298Z,5.22
2022-10-05T13:10:24.645Z,9.63
2022-10-05T13:13:23.438Z,6.95
2022-10-05T13:16:19.228Z,2.97
2022-10-05T13:19:22.393Z,4.05
2022-10-05T13:22:14.174Z,4.60
2022-10-05T13:27:21.839Z,4.30
2022-10-05T13:30:12.923Z,2.95
2022-10-05T13:32:45.636Z,6.35
2022-10-05T13:35:36.969Z,3.90
2022-10-05T13:38:28.619Z,3.70
2022-10-05T13:41:27.263Z,5.63
2022-10-05T13:44:10.359Z,4.13
2022-10-05T13:47:00.823Z,4.43
2022-10-05T13:49:44.439Z,3.25
2022-10-05T13:52:33.777Z,4.90
2022-10-05T13:55:25.172Z,3.63
2022-10-05T13:58:24.197Z,7.20
2022-10-05T14:00:54.604Z,4.80
2022-10-05T14:03:35.996Z,9.30
2022-10-05T14:06:14.494Z,7.28
2022-10-05T14:08:52.161Z,3.88
2022-10-05T14:11:31.154Z,5.22
2022-10-05T14:14:03.270Z,4.40
2022-10-05T14:16:33.401Z,4.00
2022-10-05T14:19:05.931Z,3.30
2022-10-05T14:21:43.919Z,5.40
2022-10-05T14:24:44.869Z,4.75
2022-10-05T14:27:36.399Z,5.38
2022-10-05T14:30:20.617Z,2.92
2022-10-05T14:32:56.330Z,7.28
2022-10-05T14:35:26.016Z,5.57
2022-10-05T14:37:58.377Z,5.18
2022-10-05T14:40:37.040Z,5.75
2022-10-05T14:43:15.715Z,4.53
2022-10-05T14:46:13.231Z,4.97
2022-10-05T14:48:45.226Z,4.82
2022-10-05T14:51:28.164Z,3.90
2022-10-05T14:54:00.646Z,3.15
2022-10-05T14:56:53.021Z,4.63
2022-10-05T14:59:46.679Z,3.92
2022-10-05T15:02:38.648Z,3.38
2022-10-05T15:05:15.519Z,3.80
2022-10-05T15:07:46.726Z,7.65
2022-10-05T15:10:29.315Z,5.30
2022-10-05T15:13:17.449Z,3.25
2022-10-05T15:15:54.575Z,2.72
2022-10-05T15:18:42.372Z,5.72
2022-10-05T15:21:42.571Z,3.05
2022-10-05T15:24:17.091Z,4.45
2022-10-05T15:26:50.914Z,3.22
2022-10-05T15:29:52.345Z,5.50
2022-10-05T15:32:51.137Z,5.05
2022-10-05T15:35:29.797Z,2.58
2022-10-05T15:38:02.965Z,6.03
2022-10-05T15:40:47.707Z,4.78
2022-10-05T15:43:19.966Z,4.05
2022-10-05T15:46:05.117Z,4.07
2022-10-05T15:48:58.074Z,3.25
2022-10-05T15:51:37.610Z,3.97
2022-10-05T15:54:44.181Z,4.70
2022-10-05T15:57:34.529Z,3.53
2022-10-05T16:00:11.998Z,4.07
2022-10-05T16:03:05.188Z,4.60
2022-10-05T16:05:56.036Z,3.45
2022-10-05T16:08:43.895Z,3.60
2022-10-05T16:11:20.283Z,5.35
2022-10-05T16:14:18.098Z,3.47
2022-10-05T16:16:47.486Z,7.70
2022-10-05T16:19:34.170Z,6.45
2022-10-05T16:22:15.455Z,4.50
2022-10-05T16:25:11.830Z,4.05
2022-10-05T16:28:15.318Z,2.67
2022-10-05T16:30:58.664Z,9.85
2022-10-05T16:33:45.929Z,4.47
2022-10-05T16:36:40.911Z,3.40
2022-10-05T16:39:14.667Z,4.07
2022-10-05T16:42:03.941Z,4.65
2022-10-05T16:44:49.500Z,4.10
2022-10-05T16:47:39.660Z,5.32
2022-10-05T16:50:32.336Z,4.60
2022-10-05T16:53:17.727Z,2.75
2022-10-05T16:56:01.075Z,2.88
2022-10-05T16:58:49.526Z,2.70
2022-10-05T17:01:19.205Z,3.58
2022-10-05T17:04:32.954Z,4.55
2022-10-05T17:07:34.860Z,3.47
2022-10-05T17:10:23.085Z,3.63
2022-10-05T17:13:02.887Z,4.10
2022-10-05T17:15:49.113Z,2.30
2022-10-05T17:18:39.034Z,7.25
2022-10-05T17:21:21.370Z,5.97
2022-10-05T17:24:14.316Z,6.45
2022-10-05T17:27:18.489Z,4.20
2022-10-05T17:29:52.289Z,7.90
2022-10-05T17:32:18.843Z,5.88
2022-10-05T17:35:00.477Z,3.80
2022-10-05T17:37:27.005Z,3.60
2022-10-05T17:39:57.784Z,8.48
2022-10-05T17:42:30.145Z,3.47
2022-10-05T17:45:11.868Z,6.25
2022-10-05T17:50:59.191Z,3.28
2022-10-05T17:54:06.861Z,7.97
2022-10-05T17:56:55.919Z,5.82
2022-10-05T17:59:44.519Z,3.45
2022-10-05T18:02:20.120Z,4.40
2022-10-05T18:04:59.966Z,6.32
2022-10-05T18:07:27.458Z,4.07
2022-10-05T18:10:28.694Z,5.20
2022-10-05T18:13:01.098Z,5.25
2022-10-05T18:15:27.604Z,6.93
2022-10-05T18:17:58.564Z,6.10
2022-10-05T18:20:28.381Z,5.70
2022-10-05T18:23:06.835Z,6.80
2022-10-05T18:25:51.357Z,6.57
2022-10-05T18:28:29.574Z,4.35
2022-10-05T18:31:21.089Z,4.60
2022-10-05T18:34:11.630Z,4.45
2022-10-05T18:36:45.708Z,4.28
2022-10-05T18:39:21.059Z,3.55
2022-10-05T18:42:00.348Z,4.38
2022-10-05T18:44:40.253Z,5.18
2022-10-05T18:47:16.119Z,6.50
2022-10-05T18:50:21.447Z,4.80
2022-10-05T18:53:11.904Z,3.65
2022-10-05T18:55:45.017Z,5.82
2022-10-05T18:58:41.106Z,4.72
2022-10-05T19:01:42.218Z,4.22
2022-10-05T19:04:22.302Z,4.27
2022-10-05T19:07:01.613Z,5.20
2022-10-05T19:09:49.247Z,6.75
2022-10-05T19:12:41.991Z,4.47
2022-10-05T19:15:29.641Z,9.80
2022-10-05T19:18:31.720Z,11.43
2022-10-05T19:21:14.759Z,6.25
2022-10-05T19:24:09.404Z,5.50
2022-10-05T19:26:49.891Z,5.22
2022-10-05T19:29:51.763Z,5.32
2022-10-05T19:32:50.645Z,6.15
2022-10-05T19:35:58.282Z,5.90
2022-10-05T19:38:49.378Z,4.90
2022-10-05T19:41:31.031Z,2.35
2022-10-05T19:44:00.432Z,2.05
2022-10-05T19:46:45.967Z,3.40
2022-10-05T19:49:12.679Z,2.47
2022-10-05T19:51:51.323Z,3.17
2022-10-05T19:54:29.020Z,3.17
2022-10-05T19:56:57.454Z,2.63
2022-10-05T19:59:31.287Z,1.80
2022-10-05T20:01:58.993Z,4.70
2022-10-05T20:04:54.883Z,1.70
2022-10-05T20:07:22.809Z,4.30
2022-10-05T20:10:16.750Z,2.45
2022-10-05T20:12:57.985Z,3.63
2022-10-05T20:15:47.385Z,1.65
2022-10-05T20:19:03.526Z,3.97
2022-10-05T20:21:46.446Z,2.58
2022-10-05T20:24:18.791Z,4.63
2022-10-05T20:27:30.987Z,6.32
2022-10-05T20:32:27.478Z,6.40
2022-10-05T20:34:57.045Z,5.60
2022-10-05T20:37:24.357Z,6.78
2022-10-05T20:39:51.416Z,5.10
2022-10-05T20:42:19.566Z,6.20
2022-10-05T20:44:46.398Z,6.68
2022-10-05T20:47:13.691Z,5.20
2022-10-05T20:49:44.480Z,4.50
2022-10-05T20:52:14.904Z,3.70
2022-10-05T20:54:42.317Z,9.13
2022-10-05T20:57:09.603Z,9.15
2022-10-05T20:59:37.182Z,7.63
2022-10-05T21:02:04.442Z,5.30
2022-10-05T21:04:40.205Z,3.63
2022-10-05T21:07:08.131Z,1.33
2022-10-05T21:09:37.839Z,3.03
2022-10-05T21:12:04.690Z,3.70
2022-10-05T21:14:34.070Z,1.65
2022-10-05T21:17:01.818Z,2.83
2022-10-05T21:19:29.337Z,2.58
2022-10-05T21:21:59.015Z,2.63
2022-10-05T21:24:26.075Z,1.05
2022-10-05T21:26:55.161Z,3.22
2022-10-05T21:29:22.049Z,2.63
2022-10-05T21:31:48.662Z,2.78
2022-10-05T21:34:15.681Z,4.63
2022-10-05T21:36:42.240Z,1.45
2022-10-05T21:39:08.823Z,3.28
2022-10-05T21:41:35.384Z,0.80
2022-10-05T21:44:02.030Z,4.60
2022-10-05T21:46:29.508Z,6.30
2022-10-05T21:48:56.103Z,1.83
2022-10-05T21:51:25.190Z,2.03
2022-10-05T21:54:06.010Z,0.50
2022-10-05T21:56:36.879Z,2.13
2022-10-05T21:59:06.041Z,1.30
2022-10-05T22:01:35.791Z,2.85
2022-10-05T22:04:06.226Z,1.95
2022-10-05T22:06:34.304Z,3.45
2022-10-05T22:09:01.892Z,2.00
2022-10-05T22:11:29.005Z,1.95
2022-10-05T22:14:02.014Z,2.72
2022-10-05T22:16:33.986Z,4.25
2022-10-05T22:19:13.851Z,3.20
2022-10-05T22:21:41.721Z,3.63
2022-10-05T22:24:10.189Z,7.53
2022-10-05T22:26:36.991Z,5.05
2022-10-05T22:29:03.928Z,2.67
2022-10-05T22:31:30.581Z,3.20
2022-10-05T22:33:57.244Z,6.57
2022-10-05T22:36:24.076Z,7.10
2022-10-05T22:38:50.665Z,6.78
2022-10-05T22:41:18.296Z,10.15
2022-10-05T22:43:48.544Z,5.65
2022-10-05T22:46:15.849Z,6.32
2022-10-05T22:48:43.123Z,10.68
2022-10-05T22:51:10.202Z,7.18
2022-10-05T22:53:36.891Z,6.53
2022-10-05T22:56:05.301Z,3.70
2022-10-05T22:58:31.916Z,9.75
2022-10-05T23:01:04.071Z,4.22
2022-10-05T23:03:31.515Z,5.18
2022-10-05T23:06:09.663Z,2.92
2022-10-05T23:08:37.660Z,11.75
2022-10-05T23:11:05.107Z,10.63
2022-10-05T23:13:32.890Z,10.60
2022-10-05T23:16:15.980Z,8.27
2022-10-05T23:18:43.342Z,8.00
2022-10-05T23:21:10.877Z,6.95
2022-10-05T23:23:39.189Z,5.97
2022-10-05T23:26:07.611Z,10.10
2022-10-05T23:28:34.608Z,7.72
2022-10-05T23:31:03.984Z,6.85
2022-10-05T23:33:30.680Z,8.38
2022-10-05T23:36:01.932Z,8.90
2022-10-05T23:38:29.488Z,8.68
2022-10-05T23:40:58.502Z,7.93
2022-10-05T23:43:25.547Z,10.00
2022-10-05T23:45:52.143Z,14.63
2022-10-05T23:48:19.283Z,9.23
2022-10-05T23:50:46.541Z,7.45
2022-10-05T23:53:13.159Z,9.95
2022-10-05T23:55:39.803Z,11.02
2022-10-05T23:58:06.367Z,11.77
